createdAt,value
2018-07-13T00:01:44.503Z,11.07
2018-07-13T00:04:13.130Z,12.43
2018-07-13T00:06:41.760Z,11.67
2018-07-13T00:09:12.863Z,10.63
2018-07-13T00:11:42.870Z,10.97
2018-07-13T00:14:20.554Z,10.43
2018-07-13T00:16:50.558Z,10.70
2018-07-13T00:19:19.709Z,11.47
2018-07-13T00:21:48.387Z,12.50
2018-07-13T00:24:17.192Z,12.80
2018-07-13T00:26:46.007Z,14.00
2018-07-13T00:29:14.826Z,14.00
2018-07-13T00:31:44.148Z,13.87
2018-07-13T00:34:12.894Z,13.37
2018-07-13T00:36:41.474Z,15.80
2018-07-13T00:39:11.985Z,15.67
2018-07-13T00:41:40.993Z,15.63
2018-07-13T00:44:09.956Z,16.10
2018-07-13T00:46:38.715Z,18.07
2018-07-13T00:49:08.306Z,16.57
2018-07-13T00:51:36.938Z,15.90
2018-07-13T00:54:05.964Z,17.83
2018-07-13T00:56:34.563Z,18.13
2018-07-13T00:59:03.385Z,19.80
2018-07-13T01:01:32.101Z,19.63
2018-07-13T01:04:00.738Z,20.43
2018-07-13T01:06:29.374Z,24.10
2018-07-13T01:08:57.846Z,22.63
2018-07-13T01:11:26.450Z,25.23
2018-07-13T01:13:55.132Z,23.50
2018-07-13T01:16:24.551Z,24.47
2018-07-13T01:18:53.651Z,24.00
2018-07-13T01:21:22.156Z,23.53
2018-07-13T01:23:50.748Z,30.87
2018-07-13T01:26:19.212Z,32.80
2018-07-13T01:28:47.694Z,33.47
2018-07-13T01:31:16.730Z,32.57
2018-07-13T01:33:45.234Z,30.70
2018-07-13T01:36:13.730Z,30.47
2018-07-13T01:38:42.330Z,33.90
2018-07-13T01:41:10.901Z,28.10
2018-07-13T01:43:43.463Z,33.93
2018-07-13T01:46:12.487Z,34.87
2018-07-13T01:48:42.033Z,37.53
2018-07-13T01:51:11.157Z,34.50
2018-07-13T01:53:40.800Z,41.37
2018-07-13T01:56:10.281Z,38.10
2018-07-13T01:58:38.773Z,45.23
2018-07-13T02:01:09.150Z,40.63
2018-07-13T02:03:38.629Z,44.67
2018-07-13T02:06:08.107Z,42.17
2018-07-13T02:08:36.776Z,38.83
2018-07-13T02:11:06.580Z,38.43
2018-07-13T02:13:35.136Z,40.47
2018-07-13T02:16:04.055Z,36.93
2018-07-13T02:18:32.584Z,36.67
2018-07-13T02:21:01.676Z,36.53
2018-07-13T02:23:31.236Z,32.67
2018-07-13T02:26:00.260Z,35.97
2018-07-13T02:28:29.369Z,36.37
2018-07-13T02:30:59.045Z,35.60
2018-07-13T02:33:27.719Z,36.00
2018-07-13T02:35:56.685Z,35.07
2018-07-13T02:38:26.033Z,34.53
2018-07-13T02:40:54.525Z,33.00
2018-07-13T02:43:24.034Z,33.00
2018-07-13T02:45:54.456Z,31.53
2018-07-13T02:48:24.592Z,28.60
2018-07-13T02:50:53.225Z,29.27
2018-07-13T02:53:22.317Z,28.67
2018-07-13T02:55:50.897Z,29.20
2018-07-13T02:58:20.977Z,28.93
2018-07-13T03:00:50.858Z,25.63
2018-07-13T03:03:19.719Z,23.60
2018-07-13T03:05:49.215Z,23.70
2018-07-13T03:08:18.272Z,25.27
2018-07-13T03:10:46.831Z,24.60
2018-07-13T03:13:15.534Z,24.20
2018-07-13T03:15:44.087Z,21.20
2018-07-13T03:18:12.814Z,22.13
2018-07-13T03:20:41.675Z,22.67
2018-07-13T03:23:10.320Z,23.57
2018-07-13T03:25:39.538Z,21.77
2018-07-13T03:28:08.545Z,22.53
2018-07-13T03:30:37.140Z,23.87
2018-07-13T03:33:05.606Z,26.27
2018-07-13T03:35:34.105Z,26.40
2018-07-13T03:38:02.820Z,26.00
2018-07-13T03:40:31.504Z,27.20
2018-07-13T03:42:59.985Z,25.60
2018-07-13T03:45:28.790Z,23.20
2018-07-13T03:47:57.278Z,26.13
2018-07-13T03:50:26.189Z,25.53
2018-07-13T03:52:55.040Z,24.63
2018-07-13T03:55:24.528Z,27.23
2018-07-13T03:57:54.196Z,27.37
2018-07-13T04:00:22.802Z,28.60
2018-07-13T04:02:52.168Z,27.90
2018-07-13T04:05:20.777Z,29.03
2018-07-13T04:07:50.590Z,29.90
2018-07-13T04:10:19.166Z,29.47
2018-07-13T04:12:48.531Z,27.10
2018-07-13T04:15:18.091Z,27.57
2018-07-13T04:17:46.757Z,31.70
2018-07-13T04:20:16.470Z,30.80
2018-07-13T04:22:45.614Z,27.20
2018-07-13T04:25:15.938Z,27.37
2018-07-13T04:27:45.789Z,27.77
2018-07-13T04:30:14.859Z,29.47
2018-07-13T04:32:44.535Z,27.63
2018-07-13T04:35:14.217Z,32.67
2018-07-13T04:37:42.793Z,31.23
2018-07-13T04:40:11.336Z,31.10
2018-07-13T04:42:40.361Z,32.37
2018-07-13T04:45:08.837Z,31.97
2018-07-13T04:47:38.260Z,31.57
2018-07-13T04:50:07.349Z,42.20
2018-07-13T04:52:36.008Z,42.10
2018-07-13T04:55:04.813Z,39.90
2018-07-13T04:57:33.383Z,45.40
2018-07-13T05:00:02.061Z,46.10
2018-07-13T05:02:30.932Z,51.33
2018-07-13T05:04:59.559Z,60.63
2018-07-13T05:07:28.145Z,65.83
2018-07-13T05:09:56.888Z,70.70
2018-07-13T05:12:25.453Z,78.00
2018-07-13T05:14:54.445Z,71.57
2018-07-13T05:17:23.026Z,72.10
2018-07-13T05:19:51.524Z,75.67
2018-07-13T05:22:20.422Z,70.87
2018-07-13T05:24:50.373Z,70.93
2018-07-13T05:27:20.344Z,70.40
2018-07-13T05:29:49.091Z,74.77
2018-07-13T05:32:17.775Z,76.57
2018-07-13T05:34:46.580Z,79.03
2018-07-13T05:37:15.304Z,78.90
2018-07-13T05:39:45.333Z,72.03
2018-07-13T05:42:13.971Z,69.33
2018-07-13T05:44:43.241Z,61.80
2018-07-13T05:47:12.000Z,57.10
2018-07-13T05:49:40.694Z,61.80
2018-07-13T05:52:10.071Z,58.67
2018-07-13T05:54:38.723Z,59.10
2018-07-13T05:57:08.642Z,52.03
2018-07-13T05:59:37.495Z,45.60
2018-07-13T06:02:06.619Z,43.23
2018-07-13T06:04:35.547Z,42.20
2018-07-13T06:07:04.164Z,38.47
2018-07-13T06:09:33.426Z,37.40
2018-07-13T06:12:02.116Z,33.23
2018-07-13T06:14:31.281Z,33.20
2018-07-13T06:17:00.925Z,36.23
2018-07-13T06:19:29.532Z,31.97
2018-07-13T06:21:58.170Z,34.60
2018-07-13T06:24:26.806Z,30.97
2018-07-13T06:26:55.488Z,37.37
2018-07-13T06:29:24.178Z,39.47
2018-07-13T06:31:53.008Z,40.67
2018-07-13T06:34:23.448Z,36.77
2018-07-13T06:36:52.353Z,33.73
2018-07-13T06:39:21.901Z,35.00
2018-07-13T06:41:50.625Z,32.87
2018-07-13T06:44:19.493Z,32.83
2018-07-13T06:46:49.583Z,26.97
2018-07-13T06:49:18.952Z,32.90
2018-07-13T06:51:47.626Z,25.83
2018-07-13T06:54:16.307Z,24.90
2018-07-13T06:56:45.510Z,22.13
2018-07-13T06:59:15.719Z,23.23
2018-07-13T07:01:45.441Z,20.20
2018-07-13T07:04:24.194Z,20.17
2018-07-13T07:06:53.599Z,20.00
2018-07-13T07:09:22.754Z,21.93
2018-07-13T07:12:07.357Z,22.93
2018-07-13T07:14:35.985Z,19.83
2018-07-13T07:17:04.635Z,22.80
2018-07-13T07:19:34.126Z,20.80
2018-07-13T07:22:03.785Z,20.30
2018-07-13T07:24:32.471Z,20.83
2018-07-13T07:27:01.248Z,23.50
2018-07-13T07:29:32.329Z,22.30
2018-07-13T07:32:00.978Z,23.63
2018-07-13T07:34:30.386Z,19.57
2018-07-13T07:36:58.991Z,18.90
2018-07-13T07:39:28.339Z,23.30
2018-07-13T07:41:57.005Z,19.47
2018-07-13T07:44:25.692Z,19.93
2018-07-13T07:46:54.381Z,18.60
2018-07-13T07:49:23.241Z,17.23
2018-07-13T07:51:53.347Z,18.73
2018-07-13T07:54:22.581Z,16.80
2018-07-13T07:56:51.098Z,18.80
2018-07-13T07:59:20.937Z,20.67
2018-07-13T08:01:49.549Z,17.63
2018-07-13T08:04:18.115Z,21.80
2018-07-13T08:06:47.384Z,18.77
2018-07-13T08:09:16.011Z,20.10
2018-07-13T08:11:44.962Z,21.53
2018-07-13T08:14:14.836Z,18.73
2018-07-13T08:16:43.499Z,21.87
2018-07-13T08:19:12.983Z,19.53
2018-07-13T08:21:44.945Z,17.93
2018-07-13T08:24:19.162Z,18.03
2018-07-13T08:26:48.232Z,18.70
2018-07-13T08:29:19.017Z,18.57
2018-07-13T08:31:47.582Z,19.33
2018-07-13T08:34:16.203Z,20.07
2018-07-13T08:36:45.286Z,18.40
2018-07-13T08:39:14.186Z,16.67
2018-07-13T08:41:43.396Z,17.70
2018-07-13T08:44:12.616Z,18.43
2018-07-13T08:46:41.338Z,19.60
2018-07-13T08:49:10.066Z,17.73
2018-07-13T08:51:38.917Z,19.47
2018-07-13T08:54:07.758Z,17.97
2018-07-13T08:56:36.530Z,16.10
2018-07-13T08:59:05.349Z,17.60
2018-07-13T09:01:34.135Z,16.37
2018-07-13T09:04:02.808Z,20.00
2018-07-13T09:06:31.522Z,17.73
2018-07-13T09:09:01.273Z,16.23
2018-07-13T09:11:31.185Z,16.30
2018-07-13T09:14:01.309Z,17.23
2018-07-13T09:16:30.515Z,17.17
2018-07-13T09:19:00.220Z,16.43
2018-07-13T09:21:29.115Z,15.53
2018-07-13T09:23:58.865Z,16.67
2018-07-13T09:26:27.574Z,17.27
2018-07-13T09:28:56.316Z,14.93
2018-07-13T09:31:24.907Z,16.70
2018-07-13T09:33:53.559Z,15.03
2018-07-13T09:36:23.201Z,17.17
2018-07-13T09:38:51.807Z,16.43
2018-07-13T09:41:20.469Z,16.80
2018-07-13T09:43:49.198Z,17.57
2018-07-13T09:46:17.894Z,16.10
2018-07-13T09:48:46.853Z,17.30
2018-07-13T09:51:15.503Z,19.97
2018-07-13T09:53:44.198Z,16.83
2018-07-13T09:56:12.742Z,16.63
2018-07-13T09:58:45.029Z,18.70
2018-07-13T10:01:19.710Z,15.77
2018-07-13T10:03:50.794Z,16.00
2018-07-13T10:06:20.759Z,15.50
2018-07-13T10:08:51.077Z,16.77
2018-07-13T10:11:19.762Z,16.23
2018-07-13T10:13:49.219Z,15.70
2018-07-13T10:16:18.856Z,16.00
2018-07-13T10:18:48.593Z,15.20
2018-07-13T10:21:17.394Z,15.03
2018-07-13T10:23:46.722Z,14.30
2018-07-13T10:26:21.761Z,16.83
2018-07-13T10:28:50.666Z,18.93
2018-07-13T10:31:19.904Z,16.17
2018-07-13T10:33:50.275Z,14.77
2018-07-13T10:36:20.453Z,16.27
2018-07-13T10:38:49.223Z,16.27
2018-07-13T10:41:17.850Z,17.53
2018-07-13T10:43:47.166Z,16.70
2018-07-13T10:46:15.786Z,17.47
2018-07-13T10:48:45.334Z,17.03
2018-07-13T10:51:14.644Z,20.13
2018-07-13T10:53:43.262Z,18.20
2018-07-13T10:56:11.779Z,17.20
2018-07-13T10:58:40.990Z,18.70
2018-07-13T11:01:10.490Z,17.73
2018-07-13T11:03:39.518Z,17.37
2018-07-13T11:06:08.301Z,17.67
2018-07-13T11:08:36.900Z,17.33
2018-07-13T11:11:05.458Z,18.43
2018-07-13T11:13:34.282Z,17.40
2018-07-13T11:16:06.235Z,17.30
2018-07-13T11:18:35.598Z,19.37
2018-07-13T11:21:05.084Z,18.40
2018-07-13T11:23:33.677Z,18.10
2018-07-13T11:26:02.445Z,15.63
2018-07-13T11:28:32.009Z,16.57
2018-07-13T11:31:00.571Z,15.30
2018-07-13T11:33:30.017Z,15.60
2018-07-13T11:35:58.667Z,14.97
2018-07-13T11:38:28.226Z,14.67
2018-07-13T11:40:56.797Z,14.97
2018-07-13T11:43:25.330Z,14.37
2018-07-13T11:45:55.554Z,14.93
2018-07-13T11:48:24.205Z,14.53
2018-07-13T11:50:52.813Z,15.80
2018-07-13T11:53:21.396Z,15.32
2018-07-13T11:55:50.030Z,14.97
2018-07-13T11:58:19.682Z,16.03
2018-07-13T12:00:49.206Z,15.30
2018-07-13T12:03:18.141Z,15.77
2018-07-13T12:05:46.651Z,18.20
2018-07-13T12:08:15.539Z,16.13
2018-07-13T12:10:46.697Z,17.43
2018-07-13T12:13:15.468Z,16.77
2018-07-13T12:15:45.760Z,14.20
2018-07-13T12:18:14.330Z,16.00
2018-07-13T12:20:43.948Z,15.13
2018-07-13T12:23:12.953Z,14.63
2018-07-13T12:25:43.228Z,13.83
2018-07-13T12:28:12.056Z,16.23
2018-07-13T12:30:40.606Z,17.33
2018-07-13T12:33:09.133Z,16.73
2018-07-13T12:35:37.677Z,15.38
2018-07-13T12:38:06.572Z,15.70
2018-07-13T12:40:36.263Z,16.27
2018-07-13T12:43:04.865Z,14.83
2018-07-13T12:45:34.707Z,13.90
2018-07-13T12:48:03.486Z,13.38
2018-07-13T12:50:32.661Z,14.45
2018-07-13T12:53:01.229Z,13.50
2018-07-13T12:55:30.811Z,15.95
2018-07-13T12:57:59.279Z,13.30
2018-07-13T13:00:27.841Z,13.88
2018-07-13T13:02:56.975Z,13.60
2018-07-13T13:05:26.160Z,14.33
2018-07-13T13:07:54.751Z,12.98
2018-07-13T13:10:24.792Z,12.73
2018-07-13T13:12:53.728Z,13.53
2018-07-13T13:15:22.391Z,13.68
2018-07-13T13:17:50.934Z,13.40
2018-07-13T13:20:19.428Z,14.13
2018-07-13T13:22:48.422Z,14.40
2018-07-13T13:25:17.084Z,13.53
2018-07-13T13:27:45.568Z,13.83
2018-07-13T13:30:14.047Z,14.00
2018-07-13T13:32:42.697Z,13.45
2018-07-13T13:35:11.672Z,14.23
2018-07-13T13:37:40.890Z,13.22
2018-07-13T13:40:09.488Z,15.23
2018-07-13T13:42:39.761Z,12.95
2018-07-13T13:45:09.000Z,14.80
2018-07-13T13:47:38.012Z,13.85
2018-07-13T13:50:07.108Z,15.05
2018-07-13T13:52:38.212Z,13.03
2018-07-13T13:55:07.343Z,13.58
2018-07-13T13:57:36.335Z,13.55
2018-07-13T14:00:05.639Z,13.58
2018-07-13T14:02:34.821Z,13.58
2018-07-13T14:05:03.675Z,13.90
2018-07-13T14:07:32.710Z,13.38
2018-07-13T14:10:01.351Z,14.38
2018-07-13T14:12:31.676Z,12.40
2018-07-13T14:15:00.487Z,13.35
2018-07-13T14:17:30.078Z,12.82
2018-07-13T14:19:58.652Z,13.15
2018-07-13T14:22:27.536Z,14.33
2018-07-13T14:24:56.521Z,13.55
2018-07-13T14:27:25.929Z,13.58
2018-07-13T14:29:54.708Z,12.88
2018-07-13T14:32:23.249Z,12.40
2018-07-13T14:34:52.148Z,10.85
2018-07-13T14:37:20.734Z,10.60
2018-07-13T14:39:49.293Z,10.50
2018-07-13T14:42:17.974Z,10.43
2018-07-13T14:44:46.607Z,10.05
2018-07-13T14:47:15.984Z,9.18
2018-07-13T14:49:44.883Z,10.32
2018-07-13T14:53:19.148Z,8.38
2018-07-13T14:55:48.718Z,8.00
2018-07-13T14:58:17.489Z,7.58
2018-07-13T15:00:48.337Z,8.68
2018-07-13T15:03:17.515Z,7.95
2018-07-13T15:05:46.786Z,10.23
2018-07-13T15:08:15.973Z,7.35
2018-07-13T15:10:44.838Z,8.43
2018-07-13T15:13:13.529Z,6.87
2018-07-13T15:15:42.579Z,6.87
2018-07-13T15:18:15.676Z,6.35
2018-07-13T15:20:44.530Z,7.55
2018-07-13T15:23:13.270Z,6.30
2018-07-13T15:25:41.955Z,6.37
2018-07-13T15:28:11.558Z,7.85
2018-07-13T15:30:40.388Z,5.58
2018-07-13T15:33:08.987Z,7.10
2018-07-13T15:35:38.211Z,5.70
2018-07-13T15:38:07.024Z,6.30
2018-07-13T15:40:35.654Z,5.42
2018-07-13T15:43:04.460Z,6.08
2018-07-13T15:45:33.261Z,6.67
2018-07-13T15:48:02.926Z,5.10
2018-07-13T15:50:32.189Z,5.22
2018-07-13T15:53:01.028Z,5.72
2018-07-13T15:55:35.009Z,5.00
2018-07-13T15:58:04.093Z,4.90
2018-07-13T16:00:33.487Z,6.40
2018-07-13T16:03:04.620Z,5.70
2018-07-13T16:05:34.348Z,6.40
2018-07-13T16:08:04.654Z,6.00
2018-07-13T16:10:33.314Z,8.38
2018-07-13T16:13:02.191Z,9.25
2018-07-13T16:15:31.440Z,66.92
2018-07-13T16:18:00.249Z,10.82
2018-07-13T16:20:29.047Z,9.73
2018-07-13T16:22:57.943Z,6.12
2018-07-13T16:25:26.565Z,5.25
2018-07-13T16:27:55.284Z,6.70
2018-07-13T16:30:26.105Z,4.85
2018-07-13T16:32:55.646Z,5.42
2018-07-13T16:35:24.473Z,8.35
2018-07-13T16:37:54.050Z,8.65
2018-07-13T16:40:22.785Z,9.70
2018-07-13T16:42:51.977Z,7.45
2018-07-13T16:45:20.707Z,5.33
2018-07-13T16:47:49.342Z,5.47
2018-07-13T16:50:18.853Z,6.67
2018-07-13T16:52:47.798Z,7.22
2018-07-13T16:55:16.408Z,6.08
2018-07-13T16:57:45.253Z,4.60
2018-07-13T17:00:15.758Z,4.22
2018-07-13T17:02:44.948Z,4.92
2018-07-13T17:05:13.620Z,4.65
2018-07-13T17:07:43.046Z,4.20
2018-07-13T17:10:12.189Z,5.10
2018-07-13T17:12:40.755Z,4.83
2018-07-13T17:15:10.186Z,7.87
2018-07-13T17:17:38.737Z,4.90
2018-07-13T17:20:07.565Z,4.85
2018-07-13T17:22:37.832Z,4.97
2018-07-13T17:25:06.794Z,5.03
2018-07-13T17:27:35.608Z,5.40
2018-07-13T17:30:05.289Z,5.22
2018-07-13T17:32:33.875Z,4.75
2018-07-13T17:35:02.620Z,5.25
2018-07-13T17:37:31.780Z,5.22
2018-07-13T17:40:00.772Z,4.90
2018-07-13T17:42:30.272Z,5.70
2018-07-13T17:44:58.949Z,5.53
2018-07-13T17:47:27.993Z,5.60
2018-07-13T17:49:56.907Z,6.10
2018-07-13T17:52:25.483Z,5.25
2018-07-13T17:54:54.129Z,4.75
2018-07-13T17:57:22.669Z,6.42
2018-07-13T17:59:51.488Z,4.72
2018-07-13T18:02:20.419Z,5.05
2018-07-13T18:04:49.010Z,5.47
2018-07-13T18:07:18.021Z,5.75
2018-07-13T18:09:46.922Z,5.58
2018-07-13T18:12:15.840Z,5.35
2018-07-13T18:14:45.766Z,4.72
2018-07-13T18:17:14.646Z,5.28
2018-07-13T18:19:44.046Z,4.95
2018-07-13T18:22:13.428Z,5.37
2018-07-13T18:24:42.046Z,6.83
2018-07-13T18:27:11.529Z,5.58
2018-07-13T18:29:40.093Z,5.78
2018-07-13T18:32:08.714Z,5.65
2018-07-13T18:34:37.366Z,5.97
2018-07-13T18:37:05.958Z,5.08
2018-07-13T18:39:34.527Z,5.22
2018-07-13T18:42:04.306Z,6.25
2018-07-13T18:44:32.813Z,5.70
2018-07-13T18:47:02.855Z,6.30
2018-07-13T18:49:31.490Z,6.42
2018-07-13T18:52:00.108Z,6.33
2018-07-13T18:54:28.745Z,7.03
2018-07-13T18:56:57.872Z,7.75
2018-07-13T18:59:26.595Z,7.37
2018-07-13T19:01:55.737Z,7.45
2018-07-13T19:04:25.622Z,7.50
2018-07-13T19:06:54.414Z,6.92
2018-07-13T19:09:23.387Z,7.10
2018-07-13T19:11:52.075Z,7.55
2018-07-13T19:14:21.338Z,6.95
2018-07-13T19:16:51.634Z,7.55
2018-07-13T19:19:20.729Z,7.58
2018-07-13T19:21:49.353Z,7.80
2018-07-13T19:24:19.496Z,7.62
2018-07-13T19:26:48.561Z,8.15
2018-07-13T19:29:18.745Z,6.90
2018-07-13T19:31:50.278Z,6.62
2018-07-13T19:34:19.015Z,5.97
2018-07-13T19:36:47.972Z,6.67
2018-07-13T19:39:17.795Z,7.05
2018-07-13T19:41:47.517Z,7.17
2018-07-13T19:44:16.702Z,7.85
2018-07-13T19:46:46.609Z,6.83
2018-07-13T19:49:15.934Z,6.87
2018-07-13T19:51:45.803Z,7.10
2018-07-13T19:54:14.492Z,7.75
2018-07-13T19:56:44.042Z,7.30
2018-07-13T19:59:12.973Z,6.70
2018-07-13T20:01:43.366Z,7.12
2018-07-13T20:04:15.509Z,7.78
2018-07-13T20:06:44.013Z,8.30
2018-07-13T20:09:12.874Z,8.95
2018-07-13T20:11:45.080Z,8.03
2018-07-13T20:14:14.313Z,9.45
2018-07-13T20:16:42.971Z,9.03
2018-07-13T20:19:11.425Z,8.80
2018-07-13T20:21:40.369Z,9.65
2018-07-13T20:24:10.640Z,9.60
2018-07-13T20:26:39.541Z,9.87
2018-07-13T20:29:08.074Z,9.40
2018-07-13T20:31:38.345Z,9.88
2018-07-13T20:34:07.014Z,11.43
2018-07-13T20:36:36.520Z,9.88
2018-07-13T20:39:07.010Z,10.87
2018-07-13T20:41:35.889Z,9.50
2018-07-13T20:44:05.012Z,9.53
2018-07-13T20:46:33.696Z,9.70
2018-07-13T20:49:03.562Z,9.80
2018-07-13T20:51:34.328Z,9.45
2018-07-13T20:54:03.470Z,9.85
2018-07-13T20:56:32.174Z,9.60
2018-07-13T20:59:01.825Z,9.03
2018-07-13T21:01:31.379Z,10.40
2018-07-13T21:04:00.056Z,9.37
2018-07-13T21:06:29.906Z,8.50
2018-07-13T21:08:58.781Z,8.87
2018-07-13T21:11:27.335Z,9.73
2018-07-13T21:13:56.840Z,8.33
2018-07-13T21:16:25.454Z,9.58
2018-07-13T21:18:54.494Z,8.53
2018-07-13T21:21:25.242Z,8.87
2018-07-13T21:23:56.160Z,10.17
2018-07-13T21:26:25.216Z,9.63
2018-07-13T21:28:54.585Z,8.77
2018-07-13T21:31:23.212Z,9.10
2018-07-13T21:33:52.201Z,8.77
2018-07-13T21:36:20.805Z,9.17
2018-07-13T21:38:49.958Z,12.33
2018-07-13T21:41:18.836Z,8.83
2018-07-13T21:43:47.864Z,8.93
2018-07-13T21:46:16.870Z,9.53
2018-07-13T21:48:45.705Z,8.10
2018-07-13T21:51:14.417Z,8.83
2018-07-13T21:53:45.099Z,8.60
2018-07-13T21:56:14.909Z,7.73
2018-07-13T21:58:44.200Z,8.10
2018-07-13T22:01:14.335Z,8.07
2018-07-13T22:03:43.539Z,7.70
2018-07-13T22:06:12.225Z,9.80
2018-07-13T22:08:41.446Z,7.13
2018-07-13T22:11:11.624Z,7.73
2018-07-13T22:13:41.370Z,8.23
2018-07-13T22:16:10.746Z,10.20
2018-07-13T22:18:39.342Z,8.10
2018-07-13T22:21:08.307Z,8.57
2018-07-13T22:23:37.226Z,8.17
2018-07-13T22:26:06.654Z,7.57
2018-07-13T22:28:35.470Z,9.13
2018-07-13T22:31:03.960Z,8.97
2018-07-13T22:33:33.442Z,9.20
2018-07-13T22:36:02.540Z,8.70
2018-07-13T22:38:31.412Z,9.00
2018-07-13T22:41:00.640Z,9.17
2018-07-13T22:43:29.487Z,9.47
2018-07-13T22:45:58.543Z,9.10
2018-07-13T22:48:27.087Z,11.13
2018-07-13T22:50:55.675Z,9.60
2018-07-13T22:53:25.212Z,10.63
2018-07-13T22:55:54.221Z,9.90
2018-07-13T22:58:23.399Z,9.97
2018-07-13T23:00:51.854Z,9.20
2018-07-13T23:03:20.671Z,8.93
2018-07-13T23:05:49.209Z,9.43
2018-07-13T23:08:18.320Z,8.47
2018-07-13T23:10:46.904Z,7.87
2018-07-13T23:13:15.571Z,8.43
2018-07-13T23:15:44.058Z,8.23
2018-07-13T23:18:12.730Z,7.50
2018-07-13T23:20:42.637Z,8.10
2018-07-13T23:23:12.614Z,7.83
2018-07-13T23:25:41.239Z,7.57
2018-07-13T23:28:09.789Z,7.20
2018-07-13T23:30:39.329Z,7.60
2018-07-13T23:33:07.829Z,8.63
2018-07-13T23:35:36.476Z,7.60
2018-07-13T23:38:05.471Z,6.60
2018-07-13T23:40:37.925Z,8.27
2018-07-13T23:43:06.716Z,8.10
2018-07-13T23:45:37.299Z,7.30
2018-07-13T23:48:07.528Z,7.40
2018-07-13T23:50:36.139Z,7.80
2018-07-13T23:53:06.518Z,7.40
2018-07-13T23:55:36.306Z,6.97
2018-07-13T23:58:05.208Z,7.17
